ARG1984 SAEZ-SAZN
Flight info
| Callsign | ARG1984 |
|---|---|
| Flight time | 1h 30m |
| Altitude | 32000 |
| Route | TORUL1A TORUL UT654 BIXIM UT669 ROPON |
| Aircraft | B738/M-SDE2E3FGHIRWXY/LB1 |
Departure
| Time | 2026-05-05 20:38 |
|---|---|
| Airport | Ezeiza International Airport - Ministro Pistarini (SAEZ) |
Arrival
| Time | 2026-05-05 22:09 |
|---|---|
| Airport | Presidente Perón International Airport (SAZN) |
| Time | Latitude | Longitude | Altitude | Speed | Heading |
|---|---|---|---|---|---|
| 2026-05-05 19:19 | -34.81097 | -58.53681 | 74 ft | 0 kts | 252° |
| 2026-05-05 20:29 | -34.81095 | -58.53675 | 74 ft | 4 kts | 252° |
| 2026-05-05 20:29 | -34.81087 | -58.53643 | 64 ft | 4 kts | 252° |
| 2026-05-05 20:29 | -34.81079 | -58.53612 | 66 ft | 4 kts | 252° |
| 2026-05-05 20:29 | -34.81072 | -58.53588 | 67 ft | 4 kts | 239° |
| 2026-05-05 20:30 | -34.81056 | -58.53570 | 65 ft | 4 kts | 176° |
| 2026-05-05 20:30 | -34.81032 | -58.53577 | 69 ft | 4 kts | 164° |
| 2026-05-05 20:30 | -34.81020 | -58.53581 | 70 ft | 0 kts | 164° |
| 2026-05-05 20:32 | -34.81022 | -58.53580 | 70 ft | 1 kts | 164° |
| 2026-05-05 20:33 | -34.81043 | -58.53573 | 73 ft | 6 kts | 164° |
| 2026-05-05 20:33 | -34.81098 | -58.53553 | 71 ft | 11 kts | 168° |
| 2026-05-05 20:33 | -34.81179 | -58.53583 | 71 ft | 14 kts | 197° |
| 2026-05-05 20:33 | -34.81287 | -58.53587 | 71 ft | 17 kts | 178° |
| 2026-05-05 20:34 | -34.81406 | -58.53602 | 69 ft | 18 kts | 195° |
| 2026-05-05 20:34 | -34.81521 | -58.53657 | 74 ft | 19 kts | 206° |
| 2026-05-05 20:34 | -34.81628 | -58.53764 | 74 ft | 21 kts | 223° |
| 2026-05-05 20:34 | -34.81725 | -58.53897 | 74 ft | 19 kts | 239° |
| 2026-05-05 20:35 | -34.81787 | -58.54036 | 71 ft | 18 kts | 253° |
| 2026-05-05 20:35 | -34.81783 | -58.54188 | 74 ft | 18 kts | 278° |
| 2026-05-05 20:35 | -34.81767 | -58.54334 | 67 ft | 17 kts | 277° |
| 2026-05-05 20:35 | -34.81752 | -58.54476 | 67 ft | 17 kts | 274° |
| 2026-05-05 20:36 | -34.81766 | -58.54611 | 67 ft | 16 kts | 255° |
| 2026-05-05 20:36 | -34.81779 | -58.54742 | 70 ft | 15 kts | 274° |
| 2026-05-05 20:36 | -34.81760 | -58.54866 | 71 ft | 15 kts | 282° |
| 2026-05-05 20:36 | -34.81738 | -58.54985 | 74 ft | 14 kts | 282° |
| 2026-05-05 20:37 | -34.81717 | -58.55102 | 70 ft | 15 kts | 282° |
| 2026-05-05 20:37 | -34.81701 | -58.55188 | 71 ft | 17 kts | 283° |
| 2026-05-05 20:37 | -34.81767 | -58.55341 | 75 ft | 19 kts | 186° |
| 2026-05-05 20:37 | -34.81889 | -58.55279 | 77 ft | 22 kts | 141° |
| 2026-05-05 20:38 | -34.81960 | -58.55034 | 78 ft | 55 kts | 102° |
| 2026-05-05 20:38 | -34.82094 | -58.54288 | 86 ft | 123 kts | 102° |
| 2026-05-05 20:38 | -34.82309 | -58.53063 | 274 ft | 160 kts | 101° |
| 2026-05-05 20:38 | -34.82535 | -58.51712 | 1020 ft | 165 kts | 104° |
| 2026-05-05 20:39 | -34.83139 | -58.50474 | 1638 ft | 183 kts | 136° |
| 2026-05-05 20:39 | -34.84231 | -58.49529 | 2255 ft | 199 kts | 144° |
| 2026-05-05 20:39 | -34.85561 | -58.48944 | 2756 ft | 217 kts | 178° |
| 2026-05-05 20:39 | -34.87054 | -58.49481 | 2952 ft | 239 kts | 220° |
| 2026-05-05 20:40 | -34.88027 | -58.51128 | 3497 ft | 246 kts | 245° |
| 2026-05-05 20:40 | -34.88825 | -58.53063 | 3963 ft | 263 kts | 242° |
| 2026-05-05 20:40 | -34.89732 | -58.55002 | 4947 ft | 262 kts | 241° |
| 2026-05-05 20:40 | -34.90662 | -58.56887 | 6040 ft | 257 kts | 243° |
| 2026-05-05 20:41 | -34.91581 | -58.58706 | 7017 ft | 255 kts | 243° |
| 2026-05-05 20:41 | -34.92537 | -58.60575 | 7719 ft | 264 kts | 241° |
| 2026-05-05 20:41 | -34.93526 | -58.62491 | 8492 ft | 269 kts | 240° |
| 2026-05-05 20:41 | -34.94537 | -58.64433 | 9286 ft | 274 kts | 239° |
| 2026-05-05 20:42 | -34.95572 | -58.66411 | 10052 ft | 279 kts | 238° |
| 2026-05-05 20:42 | -34.96648 | -58.68461 | 10447 ft | 299 kts | 238° |
| 2026-05-05 20:42 | -34.97810 | -58.70670 | 10631 ft | 323 kts | 238° |
| 2026-05-05 20:42 | -34.99063 | -58.73051 | 10880 ft | 342 kts | 238° |
| 2026-05-05 20:43 | -35.00367 | -58.75525 | 11402 ft | 350 kts | 238° |
| 2026-05-05 20:43 | -35.01691 | -58.78037 | 12092 ft | 353 kts | 238° |
| 2026-05-05 20:43 | -35.03025 | -58.80565 | 12802 ft | 356 kts | 239° |
| 2026-05-05 20:43 | -35.04369 | -58.83116 | 13486 ft | 360 kts | 239° |
| 2026-05-05 20:44 | -35.05729 | -58.85699 | 14105 ft | 364 kts | 239° |
| 2026-05-05 20:44 | -35.07099 | -58.88303 | 14772 ft | 365 kts | 240° |
| 2026-05-05 20:44 | -35.08467 | -58.90902 | 15526 ft | 364 kts | 240° |
| 2026-05-05 20:44 | -35.09835 | -58.93505 | 16235 ft | 365 kts | 240° |
| 2026-05-05 20:45 | -35.12589 | -58.98753 | 17520 ft | 369 kts | 240° |
| 2026-05-05 20:45 | -35.13976 | -59.01398 | 18170 ft | 371 kts | 241° |
| 2026-05-05 20:45 | -35.15371 | -59.04062 | 18745 ft | 373 kts | 240° |
| 2026-05-05 20:46 | -35.16773 | -59.06741 | 19237 ft | 377 kts | 240° |
| 2026-05-05 20:46 | -35.18192 | -59.09454 | 19760 ft | 380 kts | 240° |
| 2026-05-05 20:46 | -35.19617 | -59.12180 | 20308 ft | 382 kts | 240° |
| 2026-05-05 20:46 | -35.21050 | -59.14923 | 20854 ft | 384 kts | 240° |
| 2026-05-05 20:47 | -35.22492 | -59.17684 | 21380 ft | 386 kts | 240° |
| 2026-05-05 20:47 | -35.23940 | -59.20463 | 21886 ft | 389 kts | 240° |
| 2026-05-05 20:47 | -35.25401 | -59.23266 | 22380 ft | 392 kts | 240° |
| 2026-05-05 20:47 | -35.26870 | -59.26088 | 22865 ft | 394 kts | 240° |
| 2026-05-05 20:48 | -35.28347 | -59.28926 | 23346 ft | 397 kts | 240° |
| 2026-05-05 20:48 | -35.29834 | -59.31788 | 23766 ft | 400 kts | 240° |
| 2026-05-05 20:48 | -35.31331 | -59.34672 | 24175 ft | 401 kts | 240° |
| 2026-05-05 20:48 | -35.32830 | -59.37559 | 24584 ft | 403 kts | 240° |
| 2026-05-05 20:49 | -35.34337 | -59.40465 | 24973 ft | 405 kts | 240° |
| 2026-05-05 20:49 | -35.35832 | -59.43350 | 25336 ft | 408 kts | 239° |
| 2026-05-05 20:49 | -35.37411 | -59.46250 | 25712 ft | 410 kts | 237° |
| 2026-05-05 20:49 | -35.39066 | -59.49108 | 26080 ft | 413 kts | 237° |
| 2026-05-05 20:50 | -35.40756 | -59.51959 | 26438 ft | 415 kts | 236° |
| 2026-05-05 20:50 | -35.41907 | -59.53893 | 26676 ft | 416 kts | 236° |
| 2026-05-05 20:50 | -35.44168 | -59.57702 | 27133 ft | 419 kts | 236° |
| 2026-05-05 20:50 | -35.45875 | -59.60593 | 27586 ft | 418 kts | 237° |
| 2026-05-05 20:51 | -35.47563 | -59.63465 | 28228 ft | 412 kts | 237° |
| 2026-05-05 20:51 | -35.49228 | -59.66305 | 28831 ft | 408 kts | 237° |
| 2026-05-05 20:51 | -35.50881 | -59.69136 | 29285 ft | 408 kts | 237° |
| 2026-05-05 20:51 | -35.52532 | -59.71969 | 29711 ft | 408 kts | 237° |
| 2026-05-05 20:52 | -35.54176 | -59.74793 | 30234 ft | 405 kts | 237° |
| 2026-05-05 20:52 | -35.55805 | -59.77592 | 30743 ft | 400 kts | 238° |
| 2026-05-05 20:52 | -35.57419 | -59.80369 | 31183 ft | 398 kts | 238° |
| 2026-05-05 20:52 | -35.59028 | -59.83139 | 31567 ft | 397 kts | 238° |
| 2026-05-05 20:53 | -35.60631 | -59.85903 | 31907 ft | 397 kts | 238° |
| 2026-05-05 20:53 | -35.62240 | -59.88680 | 31919 ft | 399 kts | 238° |
| 2026-05-05 20:53 | -35.65438 | -59.94200 | 31929 ft | 395 kts | 238° |
| 2026-05-05 20:54 | -35.68083 | -59.98773 | 31946 ft | 394 kts | 238° |
| 2026-05-05 20:54 | -35.71775 | -60.05167 | 31942 ft | 394 kts | 238° |
| 2026-05-05 20:55 | -35.74949 | -60.10673 | 31937 ft | 394 kts | 238° |
| 2026-05-05 20:55 | -35.77608 | -60.15292 | 31938 ft | 395 kts | 238° |
| 2026-05-05 20:56 | -35.80780 | -60.20811 | 31944 ft | 395 kts | 239° |
| 2026-05-05 20:56 | -35.83949 | -60.26333 | 31936 ft | 395 kts | 239° |
| 2026-05-05 20:57 | -35.87118 | -60.31863 | 31938 ft | 395 kts | 239° |
| 2026-05-05 20:57 | -35.90285 | -60.37399 | 31936 ft | 395 kts | 239° |
| 2026-05-05 20:58 | -35.93448 | -60.42938 | 31950 ft | 395 kts | 239° |
| 2026-05-05 20:58 | -35.96605 | -60.48474 | 31946 ft | 395 kts | 239° |
| 2026-05-05 20:59 | -35.99758 | -60.54011 | 31933 ft | 393 kts | 239° |
| 2026-05-05 20:59 | -36.02894 | -60.59528 | 31935 ft | 392 kts | 239° |
| 2026-05-05 21:00 | -36.06053 | -60.65099 | 31947 ft | 401 kts | 239° |
| 2026-05-05 21:00 | -36.09299 | -60.70831 | 31942 ft | 412 kts | 239° |
| 2026-05-05 21:01 | -36.12624 | -60.76708 | 31951 ft | 421 kts | 239° |
| 2026-05-05 21:01 | -36.15968 | -60.82657 | 31931 ft | 425 kts | 239° |
| 2026-05-05 21:02 | -36.19330 | -60.88667 | 31934 ft | 425 kts | 239° |
| 2026-05-05 21:02 | -36.22695 | -60.94688 | 31936 ft | 425 kts | 239° |
| 2026-05-05 21:03 | -36.26051 | -61.00705 | 31931 ft | 424 kts | 239° |
| 2026-05-05 21:03 | -36.29399 | -61.06718 | 31937 ft | 424 kts | 239° |
| 2026-05-05 21:04 | -36.32747 | -61.12741 | 31930 ft | 423 kts | 239° |
| 2026-05-05 21:04 | -36.36084 | -61.18753 | 31947 ft | 423 kts | 240° |
| 2026-05-05 21:05 | -36.39413 | -61.24761 | 31931 ft | 422 kts | 240° |
| 2026-05-05 21:05 | -36.42732 | -61.30765 | 31929 ft | 421 kts | 240° |
| 2026-05-05 21:06 | -36.46046 | -61.36770 | 31933 ft | 421 kts | 240° |
| 2026-05-05 21:06 | -36.49344 | -61.42760 | 31927 ft | 420 kts | 240° |
| 2026-05-05 21:07 | -36.52643 | -61.48760 | 31926 ft | 420 kts | 240° |
| 2026-05-05 21:07 | -36.55931 | -61.54753 | 31926 ft | 420 kts | 240° |
| 2026-05-05 21:08 | -36.59223 | -61.60761 | 31929 ft | 420 kts | 240° |
| 2026-05-05 21:08 | -36.62505 | -61.66763 | 31929 ft | 420 kts | 240° |
| 2026-05-05 21:09 | -36.65787 | -61.72776 | 31929 ft | 420 kts | 240° |
| 2026-05-05 21:09 | -36.69066 | -61.78794 | 31929 ft | 420 kts | 240° |
| 2026-05-05 21:10 | -36.72345 | -61.84822 | 31929 ft | 420 kts | 240° |
| 2026-05-05 21:10 | -36.75617 | -61.90849 | 31928 ft | 420 kts | 240° |
| 2026-05-05 21:11 | -36.78867 | -61.96843 | 31936 ft | 419 kts | 241° |
| 2026-05-05 21:11 | -36.82126 | -62.02868 | 31924 ft | 418 kts | 241° |
| 2026-05-05 21:12 | -36.85375 | -62.08883 | 31929 ft | 418 kts | 241° |
| 2026-05-05 21:12 | -36.88617 | -62.14897 | 31928 ft | 417 kts | 242° |
| 2026-05-05 21:13 | -36.91855 | -62.20915 | 31931 ft | 417 kts | 242° |
| 2026-05-05 21:13 | -36.95088 | -62.26933 | 31928 ft | 417 kts | 242° |
| 2026-05-05 21:14 | -36.98320 | -62.32961 | 31929 ft | 417 kts | 242° |
| 2026-05-05 21:14 | -37.01549 | -62.38992 | 31930 ft | 417 kts | 242° |
| 2026-05-05 21:15 | -37.04777 | -62.45034 | 31928 ft | 418 kts | 242° |
| 2026-05-05 21:15 | -37.08002 | -62.51081 | 31927 ft | 418 kts | 242° |
| 2026-05-05 21:16 | -37.11224 | -62.57133 | 31931 ft | 418 kts | 242° |
| 2026-05-05 21:16 | -37.14451 | -62.63206 | 31927 ft | 418 kts | 242° |
| 2026-05-05 21:17 | -37.17671 | -62.69276 | 31945 ft | 418 kts | 242° |
| 2026-05-05 21:17 | -37.20893 | -62.75361 | 31938 ft | 419 kts | 242° |
| 2026-05-05 21:18 | -37.24092 | -62.81414 | 31933 ft | 419 kts | 242° |
| 2026-05-05 21:18 | -37.27309 | -62.87512 | 31932 ft | 419 kts | 243° |
| 2026-05-05 21:19 | -37.30529 | -62.93628 | 31928 ft | 420 kts | 243° |
| 2026-05-05 21:19 | -37.33752 | -62.99759 | 31925 ft | 421 kts | 243° |
| 2026-05-05 21:20 | -37.36557 | -63.06131 | 31942 ft | 415 kts | 250° |
| 2026-05-05 21:20 | -37.39000 | -63.12694 | 31933 ft | 415 kts | 250° |
| 2026-05-05 21:21 | -37.41439 | -63.19267 | 31934 ft | 414 kts | 250° |
| 2026-05-05 21:21 | -37.43894 | -63.25823 | 31929 ft | 414 kts | 250° |
| 2026-05-05 21:22 | -37.46352 | -63.32362 | 31933 ft | 413 kts | 250° |
| 2026-05-05 21:22 | -37.48811 | -63.38905 | 31930 ft | 413 kts | 250° |
| 2026-05-05 21:23 | -37.51265 | -63.45444 | 31950 ft | 413 kts | 251° |
| 2026-05-05 21:23 | -37.53714 | -63.51989 | 31932 ft | 413 kts | 251° |
| 2026-05-05 21:24 | -37.56158 | -63.58531 | 31936 ft | 413 kts | 251° |
| 2026-05-05 21:24 | -37.58598 | -63.65080 | 31936 ft | 412 kts | 251° |
| 2026-05-05 21:25 | -37.61033 | -63.71628 | 31937 ft | 412 kts | 251° |
| 2026-05-05 21:25 | -37.63464 | -63.78180 | 31942 ft | 413 kts | 251° |
| 2026-05-05 21:26 | -37.65878 | -63.84700 | 31936 ft | 413 kts | 251° |
| 2026-05-05 21:26 | -37.68305 | -63.91268 | 31973 ft | 413 kts | 251° |
| 2026-05-05 21:27 | -37.70727 | -63.97838 | 31943 ft | 412 kts | 251° |
| 2026-05-05 21:27 | -37.73145 | -64.04407 | 31936 ft | 412 kts | 251° |
| 2026-05-05 21:28 | -37.75557 | -64.10979 | 31951 ft | 412 kts | 251° |
| 2026-05-05 21:28 | -37.77966 | -64.17557 | 31941 ft | 413 kts | 251° |
| 2026-05-05 21:29 | -37.80372 | -64.24138 | 31951 ft | 413 kts | 251° |
| 2026-05-05 21:29 | -37.82777 | -64.30733 | 31936 ft | 413 kts | 251° |
| 2026-05-05 21:30 | -37.85178 | -64.37331 | 31952 ft | 413 kts | 251° |
| 2026-05-05 21:30 | -37.87575 | -64.43932 | 31934 ft | 413 kts | 251° |
| 2026-05-05 21:31 | -37.89970 | -64.50540 | 31936 ft | 413 kts | 251° |
| 2026-05-05 21:31 | -37.92357 | -64.57145 | 31944 ft | 413 kts | 251° |
| 2026-05-05 21:32 | -37.94742 | -64.63755 | 31941 ft | 413 kts | 251° |
| 2026-05-05 21:32 | -37.97125 | -64.70375 | 31932 ft | 413 kts | 252° |
| 2026-05-05 21:33 | -37.99501 | -64.76992 | 31933 ft | 413 kts | 252° |
| 2026-05-05 21:33 | -38.01874 | -64.83614 | 31933 ft | 413 kts | 252° |
| 2026-05-05 21:34 | -38.04233 | -64.90211 | 31939 ft | 413 kts | 252° |
| 2026-05-05 21:34 | -38.06599 | -64.96843 | 31950 ft | 413 kts | 252° |
| 2026-05-05 21:35 | -38.08966 | -65.03492 | 31941 ft | 413 kts | 252° |
| 2026-05-05 21:35 | -38.11326 | -65.10136 | 31934 ft | 413 kts | 252° |
| 2026-05-05 21:36 | -38.13682 | -65.16783 | 31937 ft | 412 kts | 252° |
| 2026-05-05 21:36 | -38.16033 | -65.23431 | 31934 ft | 412 kts | 252° |
| 2026-05-05 21:37 | -38.18360 | -65.30028 | 31953 ft | 412 kts | 252° |
| 2026-05-05 21:37 | -38.20705 | -65.36688 | 31935 ft | 413 kts | 252° |
| 2026-05-05 21:38 | -38.23030 | -65.43307 | 31928 ft | 412 kts | 252° |
| 2026-05-05 21:38 | -38.25365 | -65.49972 | 31931 ft | 412 kts | 252° |
| 2026-05-05 21:39 | -38.27698 | -65.56643 | 31939 ft | 412 kts | 252° |
| 2026-05-05 21:39 | -38.30023 | -65.63307 | 31954 ft | 412 kts | 252° |
| 2026-05-05 21:40 | -38.32341 | -65.69964 | 31934 ft | 410 kts | 252° |
| 2026-05-05 21:40 | -38.34645 | -65.76601 | 31930 ft | 409 kts | 253° |
| 2026-05-05 21:41 | -38.36941 | -65.83228 | 31930 ft | 408 kts | 253° |
| 2026-05-05 21:41 | -38.38860 | -65.88778 | 31929 ft | 408 kts | 253° |
| 2026-05-05 21:42 | -38.41131 | -65.95357 | 31949 ft | 408 kts | 253° |
| 2026-05-05 21:42 | -38.43428 | -66.01973 | 31938 ft | 408 kts | 253° |
| 2026-05-05 21:43 | -38.45730 | -66.08593 | 31928 ft | 408 kts | 253° |
| 2026-05-05 21:43 | -38.48024 | -66.15209 | 31924 ft | 407 kts | 253° |
| 2026-05-05 21:44 | -38.50311 | -66.21822 | 31928 ft | 407 kts | 253° |
| 2026-05-05 21:44 | -38.52593 | -66.28440 | 31929 ft | 407 kts | 253° |
| 2026-05-05 21:45 | -38.54871 | -66.35061 | 31929 ft | 407 kts | 253° |
| 2026-05-05 21:45 | -38.57147 | -66.41688 | 31920 ft | 407 kts | 253° |
| 2026-05-05 21:46 | -38.59418 | -66.48324 | 31629 ft | 410 kts | 254° |
| 2026-05-05 21:46 | -38.60354 | -66.51751 | 30770 ft | 405 kts | 262° |
| 2026-05-05 21:46 | -38.60864 | -66.55254 | 30187 ft | 401 kts | 265° |
| 2026-05-05 21:47 | -38.61323 | -66.58778 | 29669 ft | 404 kts | 265° |
| 2026-05-05 21:47 | -38.61796 | -66.62329 | 29108 ft | 405 kts | 265° |
| 2026-05-05 21:47 | -38.62277 | -66.65880 | 28591 ft | 405 kts | 265° |
| 2026-05-05 21:47 | -38.62762 | -66.69427 | 28069 ft | 406 kts | 265° |
| 2026-05-05 21:48 | -38.63249 | -66.72979 | 27554 ft | 407 kts | 264° |
| 2026-05-05 21:48 | -38.63738 | -66.76549 | 27031 ft | 408 kts | 264° |
| 2026-05-05 21:48 | -38.64230 | -66.80144 | 26513 ft | 411 kts | 264° |
| 2026-05-05 21:48 | -38.64717 | -66.83704 | 26006 ft | 413 kts | 264° |
| 2026-05-05 21:49 | -38.65217 | -66.87376 | 25477 ft | 415 kts | 264° |
| 2026-05-05 21:49 | -38.65706 | -66.90971 | 24982 ft | 416 kts | 264° |
| 2026-05-05 21:49 | -38.66201 | -66.94611 | 24448 ft | 412 kts | 264° |
| 2026-05-05 21:49 | -38.66683 | -66.98147 | 23934 ft | 400 kts | 264° |
| 2026-05-05 21:50 | -38.67155 | -67.01614 | 23424 ft | 392 kts | 264° |
| 2026-05-05 21:50 | -38.67618 | -67.05047 | 22844 ft | 391 kts | 264° |
| 2026-05-05 21:50 | -38.68077 | -67.08473 | 22309 ft | 389 kts | 264° |
| 2026-05-05 21:50 | -38.68538 | -67.11916 | 21799 ft | 386 kts | 264° |
| 2026-05-05 21:51 | -38.68989 | -67.15289 | 21298 ft | 384 kts | 264° |
| 2026-05-05 21:51 | -38.69436 | -67.18642 | 20810 ft | 382 kts | 264° |
| 2026-05-05 21:51 | -38.69881 | -67.21987 | 20338 ft | 380 kts | 264° |
| 2026-05-05 21:51 | -38.70317 | -67.25270 | 19858 ft | 379 kts | 265° |
| 2026-05-05 21:52 | -38.71194 | -67.31898 | 18884 ft | 376 kts | 265° |
| 2026-05-05 21:52 | -38.71629 | -67.35188 | 18403 ft | 372 kts | 265° |
| 2026-05-05 21:52 | -38.72055 | -67.38415 | 17746 ft | 366 kts | 265° |
| 2026-05-05 21:53 | -38.72478 | -67.41629 | 16872 ft | 365 kts | 265° |
| 2026-05-05 21:53 | -38.72898 | -67.44840 | 15999 ft | 365 kts | 265° |
| 2026-05-05 21:53 | -38.73315 | -67.48038 | 15250 ft | 362 kts | 265° |
| 2026-05-05 21:53 | -38.73728 | -67.51193 | 14629 ft | 356 kts | 265° |
| 2026-05-05 21:54 | -38.74131 | -67.54262 | 14363 ft | 342 kts | 265° |
| 2026-05-05 21:54 | -38.74522 | -67.57264 | 13507 ft | 344 kts | 265° |
| 2026-05-05 21:54 | -38.74914 | -67.60313 | 12540 ft | 349 kts | 265° |
| 2026-05-05 21:54 | -38.75308 | -67.63380 | 11783 ft | 348 kts | 265° |
| 2026-05-05 21:55 | -38.75700 | -67.66424 | 11164 ft | 344 kts | 265° |
| 2026-05-05 21:55 | -38.76081 | -67.69341 | 11236 ft | 321 kts | 265° |
| 2026-05-05 21:55 | -38.76437 | -67.72074 | 11257 ft | 302 kts | 265° |
| 2026-05-05 21:55 | -38.76772 | -67.74650 | 11283 ft | 284 kts | 265° |
| 2026-05-05 21:56 | -38.77085 | -67.77077 | 11284 ft | 269 kts | 266° |
| 2026-05-05 21:56 | -38.77383 | -67.79405 | 11292 ft | 263 kts | 266° |
| 2026-05-05 21:56 | -38.77675 | -67.81718 | 11300 ft | 263 kts | 266° |
| 2026-05-05 21:56 | -38.77967 | -67.84038 | 11082 ft | 262 kts | 266° |
| 2026-05-05 21:57 | -38.78252 | -67.86292 | 10772 ft | 260 kts | 266° |
| 2026-05-05 21:57 | -38.78539 | -67.88565 | 10461 ft | 258 kts | 266° |
| 2026-05-05 21:57 | -38.78824 | -67.90810 | 10321 ft | 250 kts | 266° |
| 2026-05-05 21:57 | -38.79098 | -67.92968 | 10183 ft | 243 kts | 266° |
| 2026-05-05 21:58 | -38.79365 | -67.95068 | 10074 ft | 235 kts | 266° |
| 2026-05-05 21:58 | -38.79623 | -67.97109 | 9892 ft | 231 kts | 266° |
| 2026-05-05 21:58 | -38.79878 | -67.99143 | 9624 ft | 230 kts | 266° |
| 2026-05-05 21:58 | -38.80131 | -68.01163 | 9348 ft | 229 kts | 265° |
| 2026-05-05 21:59 | -38.80383 | -68.03175 | 9073 ft | 228 kts | 265° |
| 2026-05-05 21:59 | -38.80630 | -68.05142 | 8804 ft | 228 kts | 265° |
| 2026-05-05 21:59 | -38.80881 | -68.07146 | 8520 ft | 227 kts | 265° |
| 2026-05-05 21:59 | -38.81130 | -68.09146 | 8255 ft | 227 kts | 265° |
| 2026-05-05 22:00 | -38.81381 | -68.11160 | 7986 ft | 232 kts | 265° |
| 2026-05-05 22:00 | -38.81639 | -68.13235 | 7723 ft | 239 kts | 264° |
| 2026-05-05 22:00 | -38.81906 | -68.15384 | 7378 ft | 250 kts | 264° |
| 2026-05-05 22:00 | -38.82180 | -68.17592 | 7049 ft | 251 kts | 264° |
| 2026-05-05 22:01 | -38.82456 | -68.19801 | 6758 ft | 251 kts | 264° |
| 2026-05-05 22:01 | -38.82732 | -68.22014 | 6436 ft | 249 kts | 264° |
| 2026-05-05 22:01 | -38.83002 | -68.24183 | 6144 ft | 243 kts | 264° |
| 2026-05-05 22:01 | -38.83264 | -68.26290 | 5870 ft | 236 kts | 264° |
| 2026-05-05 22:02 | -38.83521 | -68.28369 | 5634 ft | 237 kts | 265° |
| 2026-05-05 22:02 | -38.83777 | -68.30437 | 5541 ft | 234 kts | 265° |
| 2026-05-05 22:02 | -38.84029 | -68.32492 | 5447 ft | 233 kts | 265° |
| 2026-05-05 22:02 | -38.84281 | -68.34546 | 5343 ft | 233 kts | 265° |
| 2026-05-05 22:03 | -38.84611 | -68.36583 | 5235 ft | 237 kts | 251° |
| 2026-05-05 22:03 | -38.85651 | -68.38224 | 5087 ft | 242 kts | 214° |
| 2026-05-05 22:03 | -38.87232 | -68.38827 | 4915 ft | 237 kts | 184° |
| 2026-05-05 22:03 | -38.88859 | -68.38852 | 4675 ft | 232 kts | 180° |
| 2026-05-05 22:04 | -38.90450 | -68.38846 | 4434 ft | 225 kts | 179° |
| 2026-05-05 22:04 | -38.91972 | -68.38845 | 4230 ft | 213 kts | 179° |
| 2026-05-05 22:04 | -38.93423 | -68.38791 | 4019 ft | 204 kts | 165° |
| 2026-05-05 22:04 | -38.94537 | -68.37903 | 3836 ft | 183 kts | 114° |
| 2026-05-05 22:05 | -38.94795 | -68.36410 | 3740 ft | 172 kts | 84° |
| 2026-05-05 22:05 | -38.94824 | -68.34884 | 3604 ft | 172 kts | 85° |
| 2026-05-05 22:05 | -38.94842 | -68.33356 | 3400 ft | 170 kts | 84° |
| 2026-05-05 22:05 | -38.94849 | -68.31873 | 3182 ft | 160 kts | 83° |
| 2026-05-05 22:06 | -38.94852 | -68.30489 | 2976 ft | 154 kts | 84° |
| 2026-05-05 22:06 | -38.94854 | -68.29116 | 2784 ft | 153 kts | 85° |
| 2026-05-05 22:06 | -38.94858 | -68.27772 | 2598 ft | 145 kts | 86° |
| 2026-05-05 22:06 | -38.94862 | -68.26520 | 2390 ft | 136 kts | 85° |
| 2026-05-05 22:07 | -38.94865 | -68.25322 | 2203 ft | 133 kts | 87° |
| 2026-05-05 22:07 | -38.94878 | -68.24104 | 2036 ft | 141 kts | 87° |
| 2026-05-05 22:07 | -38.94875 | -68.22835 | 1840 ft | 143 kts | 87° |
| 2026-05-05 22:07 | -38.94877 | -68.21561 | 1627 ft | 143 kts | 87° |
| 2026-05-05 22:08 | -38.94897 | -68.20286 | 1442 ft | 142 kts | 86° |
| 2026-05-05 22:08 | -38.94888 | -68.19001 | 1269 ft | 145 kts | 88° |
| 2026-05-05 22:08 | -38.94892 | -68.17714 | 1040 ft | 142 kts | 89° |
| 2026-05-05 22:08 | -38.94900 | -68.16493 | 907 ft | 127 kts | 89° |
| 2026-05-05 22:09 | -38.94901 | -68.15527 | 904 ft | 80 kts | 90° |
| 2026-05-05 22:09 | -38.94901 | -68.15019 | 901 ft | 37 kts | 90° |
| 2026-05-05 22:09 | -38.94902 | -68.14704 | 901 ft | 33 kts | 89° |
| 2026-05-05 22:09 | -38.94903 | -68.14506 | 903 ft | 18 kts | 90° |
| 2026-05-05 22:10 | -38.94903 | -68.14342 | 904 ft | 18 kts | 90° |
| 2026-05-05 22:10 | -38.94905 | -68.14210 | 904 ft | 14 kts | 97° |
| 2026-05-05 22:10 | -38.94936 | -68.14124 | 907 ft | 8 kts | 142° |
| 2026-05-05 22:10 | -38.94987 | -68.14115 | 903 ft | 7 kts | 180° |
| 2026-05-05 22:11 | -38.95030 | -68.14114 | 903 ft | 3 kts | 180° |
| 2026-05-05 22:11 | -38.95039 | -68.14114 | 903 ft | 0 kts | 179° |
| 2026-05-05 22:12 | -38.95041 | -68.14114 | 903 ft | 1 kts | 179° |
| 2026-05-05 22:12 | -38.95080 | -68.14114 | 903 ft | 9 kts | 179° |
| 2026-05-05 22:12 | -38.95130 | -68.14113 | 903 ft | 6 kts | 179° |
| 2026-05-05 22:12 | -38.95154 | -68.14112 | 903 ft | 0 kts | 179° |